Time;durP1;ratioP1;P1;durP2;ratioP2;P2;SDS_P1;SDS_P2;PMS_P1;PMS_P2;Temp;Humidity;BMP_temperature;BMP_pressure;BME280_temperature;BME280_humidity;BME280_pressure;Samples;Min_cycle;Max_cycle;Signal;HPM_P1;HPM_P2
2023/11/27 00:01:21;;;;;;;151.80;146.03;;;5.00;99.90;;;;;;6154654;23;20472;-73
2023/11/27 00:03:48;;;;;;;174.23;168.17;;;5.00;99.90;;;;;;6154684;23;20410;-72
2023/11/27 00:06:16;;;;;;;144.77;139.07;;;5.00;99.90;;;;;;6154084;23;20434;-73
2023/11/27 00:08:43;;;;;;;137.93;132.53;;;5.00;99.90;;;;;;6155837;23;20782;-73
2023/11/27 00:11:10;;;;;;;124.33;119.63;;;5.00;99.90;;;;;;6155943;23;20452;-72
2023/11/27 00:13:37;;;;;;;99.23;94.53;;;5.00;99.90;;;;;;6156322;23;21126;-72
2023/11/27 00:16:07;;;;;;;58.57;55.57;;;5.00;99.90;;;;;;6155997;23;20460;-72
2023/11/27 00:18:35;;;;;;;63.67;60.80;;;5.00;99.90;;;;;;6156547;23;20479;-72
2023/11/27 00:21:02;;;;;;;60.30;57.00;;;5.00;99.90;;;;;;6155921;23;20414;-72
2023/11/27 00:23:29;;;;;;;50.90;48.20;;;5.00;99.90;;;;;;6156523;23;20412;-72
2023/11/27 00:25:56;;;;;;;48.40;46.03;;;5.00;99.90;;;;;;6156362;23;20434;-72
2023/11/27 00:28:23;;;;;;;46.50;44.40;;;5.10;99.90;;;;;;6155986;23;20422;-72
2023/11/27 00:30:51;;;;;;;32.20;30.40;;;5.10;99.90;;;;;;6156106;23;20818;-72
2023/11/27 00:33:20;;;;;;;23.80;21.80;;;5.10;99.90;;;;;;6155868;23;20417;-72
2023/11/27 00:35:47;;;;;;;24.00;22.07;;;5.10;99.90;;;;;;6155918;23;20409;-72
2023/11/27 00:38:14;;;;;;;22.90;20.80;;;5.10;99.90;;;;;;6156316;23;20612;-73
2023/11/27 00:40:41;;;;;;;16.00;14.70;;;5.10;99.90;;;;;;6156006;23;20950;-72
2023/11/27 00:43:08;;;;;;;17.03;14.97;;;5.10;99.90;;;;;;6155855;23;20416;-72
2023/11/27 00:45:35;;;;;;;16.30;15.03;;;5.10;99.90;;;;;;6155950;23;20808;-72
2023/11/27 00:48:02;;;;;;;16.87;15.57;;;5.10;99.90;;;;;;6156174;23;20780;-72
2023/11/27 00:50:31;;;;;;;16.63;14.90;;;5.10;99.90;;;;;;6156241;23;20449;-72
2023/11/27 00:52:57;;;;;;;15.53;14.10;;;5.10;99.90;;;;;;6156176;23;20483;-72
2023/11/27 00:55:24;;;;;;;17.60;16.07;;;5.10;99.90;;;;;;6155644;23;20482;-72
2023/11/27 00:57:51;;;;;;;19.40;15.03;;;5.10;99.90;;;;;;6156136;23;20460;-72
2023/11/27 01:00:19;;;;;;;16.43;13.17;;;5.20;99.90;;;;;;6155397;23;20891;-72
2023/11/27 01:02:46;;;;;;;15.87;14.17;;;5.20;99.90;;;;;;6155999;23;20493;-73
2023/11/27 01:05:14;;;;;;;16.97;13.10;;;5.20;99.90;;;;;;6155728;23;20420;-72
2023/11/27 01:07:43;;;;;;;15.63;14.00;;;5.20;99.90;;;;;;6156076;23;20408;-72
2023/11/27 01:10:10;;;;;;;17.23;15.60;;;5.20;99.90;;;;;;6155467;23;20408;-72
2023/11/27 01:12:42;;;;;;;20.77;18.87;;;5.10;99.90;;;;;;6155663;23;20413;-72
2023/11/27 01:15:11;;;;;;;26.00;24.30;;;5.10;99.90;;;;;;6155927;23;20390;-72
2023/11/27 01:17:38;;;;;;;33.10;30.60;;;5.10;99.90;;;;;;6155883;23;20402;-72
2023/11/27 01:20:07;;;;;;;36.50;34.33;;;5.00;99.90;;;;;;6154898;23;20782;-72
2023/11/27 01:22:33;;;;;;;40.57;37.37;;;5.00;99.90;;;;;;6155888;23;20807;-73
2023/11/27 01:25:02;;;;;;;51.43;48.37;;;4.90;99.90;;;;;;6165450;23;20710;-73
2023/11/27 01:27:29;;;;;;;69.17;65.50;;;4.90;99.90;;;;;;6155247;23;20448;-73
2023/11/27 01:29:56;;;;;;;86.17;82.30;;;4.90;99.90;;;;;;6155554;23;20492;-73
2023/11/27 01:32:24;;;;;;;106.27;101.50;;;4.80;99.90;;;;;;6155840;23;20413;-72
2023/11/27 01:34:51;;;;;;;129.90;124.90;;;4.80;99.90;;;;;;6155704;23;20410;-72
2023/11/27 01:37:18;;;;;;;139.70;134.43;;;4.80;99.90;;;;;;6155448;23;20787;-72
2023/11/27 01:39:45;;;;;;;148.00;142.43;;;4.80;99.90;;;;;;6154918;23;20437;-72
2023/11/27 01:42:13;;;;;;;183.97;177.53;;;4.80;99.90;;;;;;6155632;23;20440;-73
2023/11/27 01:44:40;;;;;;;169.20;163.00;;;4.70;99.90;;;;;;6155272;23;20488;-73
2023/11/27 01:47:07;;;;;;;203.40;196.40;;;4.80;99.90;;;;;;6155492;23;20437;-73
2023/11/27 01:49:35;;;;;;;201.20;194.27;;;4.70;99.90;;;;;;6155174;23;20416;-73
2023/11/27 01:52:02;;;;;;;233.07;224.97;;;4.70;99.90;;;;;;6155640;23;20465;-73
2023/11/27 01:54:31;;;;;;;215.47;207.87;;;4.70;99.90;;;;;;6155298;23;20453;-72
2023/11/27 01:56:59;;;;;;;223.73;215.60;;;4.80;99.90;;;;;;6155489;23;20424;-72
2023/11/27 01:59:28;;;;;;;205.70;198.77;;;4.80;99.90;;;;;;6155018;23;20413;-72
2023/11/27 02:01:55;;;;;;;180.27;173.77;;;4.80;99.90;;;;;;6155395;23;20783;-73
2023/11/27 02:04:22;;;;;;;182.30;175.90;;;4.80;99.90;;;;;;6154942;23;20445;-73
2023/11/27 02:06:50;;;;;;;187.07;180.73;;;4.80;99.90;;;;;;6154918;23;20433;-72
2023/11/27 02:09:17;;;;;;;193.60;186.70;;;4.80;99.90;;;;;;6155335;23;20414;-72
2023/11/27 02:11:45;;;;;;;195.60;188.70;;;4.80;99.90;;;;;;6155248;23;20448;-72
2023/11/27 02:14:15;;;;;;;198.47;191.40;;;4.80;99.90;;;;;;6155249;23;20467;-72
2023/11/27 02:16:44;;;;;;;227.17;219.73;;;4.80;99.90;;;;;;6155365;23;20406;-72
2023/11/27 02:19:11;;;;;;;265.03;256.47;;;4.80;99.90;;;;;;6155311;23;20413;-72
2023/11/27 02:21:38;;;;;;;312.77;302.43;;;4.70;99.90;;;;;;6155132;23;20475;-72
2023/11/27 02:24:07;;;;;;;371.53;358.93;;;4.70;99.90;;;;;;6155281;23;20742;-72
2023/11/27 02:26:34;;;;;;;413.23;398.63;;;4.60;99.90;;;;;;6154939;23;20504;-72
2023/11/27 02:29:00;;;;;;;458.50;441.50;;;4.60;99.90;;;;;;6155148;23;20410;-72
2023/11/27 02:31:27;;;;;;;498.73;479.97;;;4.60;99.90;;;;;;6154629;23;20495;-72
2023/11/27 02:33:54;;;;;;;551.33;528.57;;;4.60;99.90;;;;;;6155069;23;20464;-72
2023/11/27 02:36:21;;;;;;;551.60;529.50;;;4.60;99.90;;;;;;6154780;23;20406;-72
2023/11/27 02:38:49;;;;;;;577.60;554.20;;;4.60;99.90;;;;;;6155147;23;20489;-72
2023/11/27 02:41:17;;;;;;;625.70;599.00;;;4.50;99.90;;;;;;6154572;23;20495;-72
2023/11/27 02:43:44;;;;;;;651.63;623.23;;;4.50;99.90;;;;;;6155106;23;20420;-72
2023/11/27 02:46:11;;;;;;;700.60;668.83;;;4.50;99.90;;;;;;6154604;23;20495;-72
2023/11/27 02:48:38;;;;;;;725.37;691.90;;;4.50;99.90;;;;;;6154982;23;20444;-72
2023/11/27 02:51:05;;;;;;;737.20;701.93;;;4.50;99.90;;;;;;6154615;23;20448;-72
2023/11/27 02:53:32;;;;;;;742.70;707.03;;;4.40;99.90;;;;;;6155176;23;20805;-72
2023/11/27 02:55:59;;;;;;;732.80;697.73;;;4.40;99.90;;;;;;6154630;23;20806;-72
2023/11/27 02:58:28;;;;;;;744.67;708.63;;;4.40;99.90;;;;;;6154974;23;20410;-72
2023/11/27 03:00:55;;;;;;;747.30;710.33;;;4.50;99.90;;;;;;6154847;23;20741;-72
2023/11/27 03:03:22;;;;;;;696.30;663.27;;;4.50;99.90;;;;;;6154578;23;20492;-72
2023/11/27 03:05:49;;;;;;;593.50;567.33;;;4.50;99.90;;;;;;6154637;23;20409;-72
2023/11/27 03:08:16;;;;;;;517.17;496.40;;;4.60;99.90;;;;;;6154934;23;20781;-72
2023/11/27 03:10:43;;;;;;;449.97;432.73;;;4.60;99.90;;;;;;6155106;23;20750;-72
2023/11/27 03:13:10;;;;;;;394.20;380.17;;;4.80;99.90;;;;;;6164631;23;20484;-72
2023/11/27 03:15:38;;;;;;;323.47;312.57;;;4.80;99.90;;;;;;6154784;23;20495;-72
2023/11/27 03:18:05;;;;;;;279.53;269.93;;;4.80;99.90;;;;;;6154865;23;20411;-73
2023/11/27 03:20:32;;;;;;;308.63;298.20;;;4.80;99.90;;;;;;6154853;23;20500;-73
2023/11/27 03:22:59;;;;;;;254.87;245.63;;;4.80;99.90;;;;;;6154984;23;20459;-72
2023/11/27 03:25:25;;;;;;;240.97;232.73;;;4.80;99.90;;;;;;6154913;23;20443;-72
2023/11/27 03:27:52;;;;;;;169.00;162.53;;;4.80;99.90;;;;;;6154720;23;20472;-73
2023/11/27 03:30:20;;;;;;;185.50;178.80;;;4.80;99.90;;;;;;6154327;23;20443;-73
2023/11/27 03:32:50;;;;;;;232.57;224.87;;;4.80;99.90;;;;;;6154555;23;20416;-73
2023/11/27 03:35:17;;;;;;;233.10;225.00;;;4.80;99.90;;;;;;6154458;23;20423;-73
2023/11/27 03:37:44;;;;;;;202.47;194.47;;;4.80;99.90;;;;;;6154847;23;20410;-73
2023/11/27 03:40:11;;;;;;;162.20;156.40;;;4.80;99.90;;;;;;6154339;23;20413;-73
2023/11/27 03:42:38;;;;;;;166.97;160.87;;;4.80;99.90;;;;;;6155075;23;20422;-73
2023/11/27 03:45:06;;;;;;;188.07;181.30;;;4.80;99.90;;;;;;6156208;23;20495;-73
2023/11/27 03:47:32;;;;;;;206.40;198.70;;;4.80;99.90;;;;;;6156773;23;20767;-73
2023/11/27 03:50:01;;;;;;;197.00;190.37;;;4.80;99.90;;;;;;6156545;23;20515;-73
2023/11/27 03:52:30;;;;;;;185.30;178.73;;;4.70;99.90;;;;;;6156292;23;20420;-73
2023/11/27 03:54:56;;;;;;;206.63;199.07;;;4.80;99.90;;;;;;6156548;23;20421;-73
2023/11/27 03:57:24;;;;;;;188.30;181.47;;;4.70;99.90;;;;;;6156632;23;20497;-73
2023/11/27 03:59:51;;;;;;;213.30;205.70;;;4.70;99.90;;;;;;6156436;23;20419;-73
2023/11/27 04:02:18;;;;;;;285.47;275.57;;;4.70;99.90;;;;;;6156257;23;20913;-73
2023/11/27 04:04:46;;;;;;;371.80;358.60;;;4.60;99.90;;;;;;6156498;23;20546;-73
2023/11/27 04:07:14;;;;;;;430.37;414.60;;;4.60;99.90;;;;;;6156439;23;20439;-73
2023/11/27 04:09:41;;;;;;;476.67;458.40;;;4.60;99.90;;;;;;6156360;23;20416;-73
2023/11/27 04:12:08;;;;;;;511.67;490.97;;;4.50;99.90;;;;;;6156496;23;20410;-73
2023/11/27 04:14:35;;;;;;;535.27;513.47;;;4.50;99.90;;;;;;6155990;23;20451;-74
2023/11/27 04:17:03;;;;;;;537.97;515.63;;;4.50;99.90;;;;;;6156395;23;20487;-74
2023/11/27 04:19:30;;;;;;;602.70;576.90;;;4.50;99.90;;;;;;6155919;23;20420;-75
2023/11/27 04:21:57;;;;;;;636.80;609.30;;;4.50;99.90;;;;;;6156012;23;20451;-75
2023/11/27 04:24:25;;;;;;;690.93;660.13;;;4.50;99.90;;;;;;6155963;23;20468;-75
2023/11/27 04:26:52;;;;;;;744.43;709.77;;;4.40;99.90;;;;;;6156103;23;20531;-76
2023/11/27 04:29:20;;;;;;;806.50;766.87;;;4.50;99.90;;;;;;6155921;23;20413;-76
2023/11/27 04:31:46;;;;;;;801.73;761.80;;;4.40;99.90;;;;;;6156119;23;20411;-76
2023/11/27 04:34:14;;;;;;;821.73;781.07;;;4.40;99.90;;;;;;6156319;23;20412;-76
2023/11/27 04:36:41;;;;;;;839.43;796.97;;;4.40;99.90;;;;;;6156251;23;20429;-76
2023/11/27 04:39:10;;;;;;;844.30;800.80;;;4.40;99.90;;;;;;6156214;23;20412;-76
2023/11/27 04:41:39;;;;;;;839.57;796.27;;;4.40;99.90;;;;;;6156073;23;20410;-76
2023/11/27 04:44:07;;;;;;;852.17;807.70;;;4.40;99.90;;;;;;6155937;23;20409;-77
2023/11/27 04:46:34;;;;;;;864.37;819.07;;;4.40;99.90;;;;;;6156111;23;20412;-77
2023/11/27 04:49:00;;;;;;;865.33;819.33;;;4.40;99.90;;;;;;6156191;23;20555;-77
2023/11/27 04:51:28;;;;;;;881.47;832.53;;;4.30;99.90;;;;;;6156034;23;20491;-76
2023/11/27 04:53:55;;;;;;;892.80;840.80;;;4.40;99.90;;;;;;6156100;23;20795;-77
2023/11/27 04:56:22;;;;;;;895.27;839.30;;;4.30;99.90;;;;;;6155574;23;20424;-77
2023/11/27 04:58:50;;;;;;;891.80;836.73;;;4.30;99.90;;;;;;6155987;23;20740;-77
2023/11/27 05:01:17;;;;;;;893.13;839.67;;;4.30;99.90;;;;;;6155936;23;20478;-77
2023/11/27 05:03:44;;;;;;;880.57;830.00;;;4.30;99.90;;;;;;6156009;23;20412;-77
2023/11/27 05:06:15;;;;;;;876.43;826.27;;;4.20;99.90;;;;;;6155805;23;20459;-77
2023/11/27 05:08:41;;;;;;;866.33;815.47;;;4.20;99.90;;;;;;6155753;23;20431;-77
2023/11/27 05:11:09;;;;;;;862.97;812.40;;;4.20;99.90;;;;;;6155527;23;20896;-77
2023/11/27 05:13:36;;;;;;;865.37;812.57;;;4.20;99.90;;;;;;6155965;23;20419;-77
2023/11/27 05:16:05;;;;;;;877.07;822.87;;;4.20;99.90;;;;;;6155910;23;20461;-77
2023/11/27 05:18:33;;;;;;;895.43;838.37;;;4.20;99.90;;;;;;6155486;23;20923;-77
2023/11/27 05:21:00;;;;;;;903.33;844.73;;;4.10;99.90;;;;;;6155703;23;20744;-76
2023/11/27 05:23:27;;;;;;;925.33;863.73;;;4.10;99.90;;;;;;6156038;23;20412;-77
2023/11/27 05:25:53;;;;;;;924.33;863.07;;;4.10;99.90;;;;;;6155611;23;20451;-76
2023/11/27 05:28:20;;;;;;;947.57;886.03;;;4.10;99.90;;;;;;6155312;23;20932;-76
2023/11/27 05:30:47;;;;;;;936.63;874.70;;;4.10;99.90;;;;;;6155222;23;20419;-76
2023/11/27 05:33:16;;;;;;;898.57;842.20;;;4.10;99.90;;;;;;6155788;23;20455;-77
2023/11/27 05:35:43;;;;;;;917.37;860.90;;;4.10;99.90;;;;;;6155311;23;20476;-77
2023/11/27 05:38:10;;;;;;;936.63;876.53;;;4.10;99.90;;;;;;6155052;23;20439;-77
2023/11/27 05:40:36;;;;;;;941.73;881.97;;;4.10;99.90;;;;;;6154710;23;20787;-77
2023/11/27 05:43:05;;;;;;;933.93;873.73;;;4.10;99.90;;;;;;6155543;23;20419;-78
2023/11/27 05:45:34;;;;;;;958.97;897.07;;;4.10;99.90;;;;;;6154959;23;20416;-77
2023/11/27 05:48:01;;;;;;;938.43;874.53;;;4.10;99.90;;;;;;6155742;23;20434;-77
2023/11/27 05:50:29;;;;;;;936.13;873.70;;;4.10;99.90;;;;;;6155458;23;20749;-77
2023/11/27 05:52:56;;;;;;;960.63;894.77;;;4.10;99.90;;;;;;6155525;23;20423;-77
2023/11/27 05:55:23;;;;;;;994.57;924.27;;;4.10;99.90;;;;;;6155371;23;20426;-77
2023/11/27 05:57:50;;;;;;;969.63;902.73;;;4.00;99.90;;;;;;6155476;23;20410;-78
2023/11/27 06:00:18;;;;;;;969.00;902.00;;;4.00;99.90;;;;;;6155343;23;20438;-78
2023/11/27 06:02:44;;;;;;;1003.40;931.63;;;4.00;99.90;;;;;;6154990;23;20410;-78
2023/11/27 06:05:11;;;;;;;991.40;920.37;;;4.00;99.90;;;;;;6155232;23;20421;-78
2023/11/27 06:07:40;;;;;;;984.97;911.47;;;4.00;99.90;;;;;;6155342;23;20507;-78
2023/11/27 06:10:08;;;;;;;968.43;898.00;;;4.00;99.90;;;;;;6154960;23;20411;-78
2023/11/27 06:12:35;;;;;;;976.80;904.67;;;4.00;99.90;;;;;;6155534;23;20784;-78
2023/11/27 06:15:02;;;;;;;947.80;879.40;;;4.00;99.90;;;;;;6155175;23;20410;-78
2023/11/27 06:17:29;;;;;;;981.33;913.20;;;4.00;99.90;;;;;;6155037;23;20408;-78
2023/11/27 06:19:56;;;;;;;959.90;892.37;;;4.00;99.90;;;;;;6154772;23;20897;-78
2023/11/27 06:22:23;;;;;;;942.40;877.63;;;4.10;99.90;;;;;;6155406;23;20484;-78
2023/11/27 06:24:51;;;;;;;932.30;870.10;;;4.00;99.90;;;;;;6155542;23;20411;-78
2023/11/27 06:27:18;;;;;;;934.67;871.10;;;4.00;99.90;;;;;;6155277;23;20475;-79
2023/11/27 06:29:45;;;;;;;929.77;866.27;;;4.00;99.90;;;;;;6155120;23;20491;-79
2023/11/27 06:32:12;;;;;;;953.40;888.73;;;4.00;99.90;;;;;;6155336;23;20410;-79
2023/11/27 06:34:38;;;;;;;964.43;897.53;;;4.00;99.90;;;;;;6155028;23;20962;-79
2023/11/27 06:37:06;;;;;;;960.10;892.83;;;4.00;99.90;;;;;;6154923;23;20449;-79
2023/11/27 06:39:33;;;;;;;963.20;896.93;;;4.00;99.90;;;;;;6154962;23;20415;-80
2023/11/27 06:42:02;;;;;;;931.93;871.17;;;4.00;99.90;;;;;;6155475;23;20413;-81
2023/11/27 06:44:28;;;;;;;922.97;861.60;;;4.00;99.90;;;;;;6154688;23;20894;-81
2023/11/27 06:46:55;;;;;;;921.50;861.43;;;3.90;99.90;;;;;;6155179;23;20505;-80
2023/11/27 06:49:22;;;;;;;927.83;865.37;;;3.90;99.90;;;;;;6155062;23;20525;-80
2023/11/27 06:51:49;;;;;;;922.90;861.30;;;3.90;99.90;;;;;;6154908;23;20492;-80
2023/11/27 06:54:16;;;;;;;923.17;858.60;;;3.90;99.90;;;;;;6154945;23;20419;-80
2023/11/27 06:56:43;;;;;;;929.33;863.83;;;3.90;99.90;;;;;;6155291;23;20714;-81
2023/11/27 06:59:11;;;;;;;916.83;854.67;;;3.90;99.90;;;;;;6155012;23;20412;-78
2023/11/27 07:01:41;;;;;;;925.87;861.10;;;3.90;99.90;;;;;;6155308;23;20419;-78
2023/11/27 07:04:08;;;;;;;937.07;870.47;;;3.90;99.90;;;;;;6154914;23;20412;-79
2023/11/27 07:06:35;;;;;;;928.23;864.73;;;3.90;99.90;;;;;;6154963;23;20414;-78
2023/11/27 07:09:04;;;;;;;937.50;871.90;;;3.90;99.90;;;;;;6154536;23;20973;-78
2023/11/27 07:11:32;;;;;;;927.07;861.50;;;3.90;99.90;;;;;;6154853;23;20444;-78
2023/11/27 07:14:00;;;;;;;921.10;855.80;;;3.90;99.90;;;;;;6154998;23;20493;-78
2023/11/27 07:16:29;;;;;;;928.53;864.80;;;3.90;99.90;;;;;;6155178;23;20423;-78
2023/11/27 07:18:57;;;;;;;936.13;868.07;;;3.90;99.90;;;;;;6156947;23;20751;-77
2023/11/27 07:21:25;;;;;;;936.67;868.90;;;3.90;99.90;;;;;;6156945;23;20417;-77
2023/11/27 07:23:53;;;;;;;952.30;880.83;;;4.00;99.90;;;;;;6156595;23;20415;-78
2023/11/27 07:26:20;;;;;;;993.03;916.33;;;3.90;99.90;;;;;;6156692;23;20446;-78
2023/11/27 07:28:47;;;;;;;1005.20;926.47;;;3.90;99.90;;;;;;6156698;23;20524;-78
2023/11/27 07:31:16;;;;;;;1044.83;960.13;;;3.90;99.90;;;;;;6156823;23;20442;-78
2023/11/27 07:33:45;;;;;;;1063.87;975.07;;;3.90;99.90;;;;;;6156658;23;20411;-77
2023/11/27 07:36:12;;;;;;;1044.10;955.17;;;3.90;99.90;;;;;;6156899;23;20413;-78
2023/11/27 07:38:40;;;;;;;1045.63;954.63;;;3.90;99.90;;;;;;6157070;23;20408;-78
2023/11/27 07:41:08;;;;;;;1098.63;999.90;;;3.90;99.90;;;;;;6156669;23;20412;-77
2023/11/27 07:43:35;;;;;;;1087.97;988.17;;;3.90;99.90;;;;;;6156953;23;20750;-77
2023/11/27 07:46:05;;;;;;;1107.47;999.90;;;3.90;99.90;;;;;;6156458;23;20498;-77
2023/11/27 07:48:33;;;;;;;1086.17;986.37;;;3.90;99.90;;;;;;6156646;23;20951;-77
2023/11/27 07:51:04;;;;;;;1113.17;999.90;;;3.90;99.90;;;;;;6156578;23;20417;-78
2023/11/27 07:53:31;;;;;;;1097.63;996.93;;;3.90;99.90;;;;;;6157015;23;20405;-77
2023/11/27 07:55:59;;;;;;;1129.57;999.90;;;4.00;99.90;;;;;;6156237;23;20450;-77
2023/11/27 07:58:26;;;;;;;1105.60;999.90;;;3.90;99.90;;;;;;6156698;23;20434;-77
2023/11/27 08:00:53;;;;;;;1113.13;999.90;;;4.00;99.90;;;;;;6156596;23;20418;-77
2023/11/27 08:03:20;;;;;;;1095.60;995.00;;;4.00;99.90;;;;;;6156212;23;20415;-77
2023/11/27 08:05:47;;;;;;;1092.97;992.20;;;3.90;99.90;;;;;;6156521;23;20411;-77
2023/11/27 08:08:15;;;;;;;1103.17;999.90;;;3.90;99.90;;;;;;6156363;23;20485;-77
2023/11/27 08:10:44;;;;;;;1099.30;998.77;;;4.00;99.90;;;;;;6154844;23;20416;-77
2023/11/27 08:13:11;;;;;;;1090.10;988.83;;;4.00;99.90;;;;;;6156238;23;20488;-77
2023/11/27 08:15:38;;;;;;;1132.47;999.90;;;3.90;99.90;;;;;;6156365;23;20735;-77
2023/11/27 08:18:05;;;;;;;1135.70;999.90;;;3.90;99.90;;;;;;6156068;23;20406;-77
2023/11/27 08:20:33;;;;;;;1101.30;999.40;;;3.90;99.90;;;;;;6156058;23;20409;-77
2023/11/27 08:23:02;;;;;;;1126.03;999.90;;;3.90;99.90;;;;;;6156299;23;20411;-77
2023/11/27 08:25:30;;;;;;;1131.37;999.90;;;3.90;99.90;;;;;;6156207;23;20744;-77
2023/11/27 08:27:57;;;;;;;1120.07;999.90;;;3.90;99.90;;;;;;6155995;23;20606;-78
2023/11/27 08:30:27;;;;;;;1064.50;966.43;;;3.90;99.90;;;;;;6155907;23;20414;-78
2023/11/27 08:32:54;;;;;;;1124.20;999.90;;;3.90;99.90;;;;;;6156152;23;20421;-78
2023/11/27 08:35:21;;;;;;;1090.50;991.00;;;3.90;99.90;;;;;;6155811;23;20410;-77
2023/11/27 08:37:49;;;;;;;1085.80;986.70;;;3.90;99.90;;;;;;6156232;23;20498;-77
2023/11/27 08:40:16;;;;;;;1061.60;962.73;;;3.90;99.90;;;;;;6156042;23;20410;-77
2023/11/27 08:42:44;;;;;;;1067.90;969.83;;;3.90;99.90;;;;;;6155834;23;20415;-77
2023/11/27 08:45:16;;;;;;;1054.30;956.67;;;3.90;99.90;;;;;;6155990;23;20411;-78
2023/11/27 08:47:50;;;;;;;1059.23;962.43;;;3.90;99.90;;;;;;6155549;23;20444;-77
2023/11/27 08:50:17;;;;;;;1056.73;959.87;;;3.90;99.90;;;;;;6155915;23;20492;-77
2023/11/27 08:52:44;;;;;;;1056.27;958.60;;;3.90;99.90;;;;;;6155854;23;20410;-77
2023/11/27 08:55:18;;;;;;;1057.90;960.03;;;3.90;99.90;;;;;;6155616;23;20420;-77
2023/11/27 08:57:46;;;;;;;1133.80;999.90;;;3.90;99.90;;;;;;6156042;23;20406;-77
2023/11/27 09:00:17;;;;;;;1111.17;999.90;;;3.90;99.90;;;;;;6155781;23;20500;-77
2023/11/27 09:02:44;;;;;;;1094.53;993.20;;;3.90;99.90;;;;;;6155930;23;20396;-77
2023/11/27 09:05:11;;;;;;;1072.60;974.40;;;3.90;99.90;;;;;;6155662;23;20410;-77
2023/11/27 09:07:38;;;;;;;1045.07;947.37;;;3.90;99.90;;;;;;6155772;23;20448;-77
2023/11/27 09:10:07;;;;;;;1024.97;929.90;;;3.90;99.90;;;;;;6155290;23;20954;-77
2023/11/27 09:12:34;;;;;;;1020.40;925.10;;;3.90;99.90;;;;;;6155614;23;20411;-77
2023/11/27 09:15:05;;;;;;;1005.20;910.43;;;3.90;99.90;;;;;;6155944;23;20411;-77
2023/11/27 09:17:32;;;;;;;987.03;894.97;;;4.00;99.90;;;;;;6155853;23;20858;-77
2023/11/27 09:19:59;;;;;;;1006.83;913.07;;;3.90;99.90;;;;;;6155896;23;20409;-78
2023/11/27 09:22:25;;;;;;;1035.17;940.63;;;4.00;99.90;;;;;;6156134;23;20492;-78
2023/11/27 09:24:53;;;;;;;1121.00;999.90;;;4.00;99.90;;;;;;6155146;23;20484;-79
2023/11/27 09:27:20;;;;;;;1136.30;999.90;;;4.00;99.90;;;;;;6154509;23;20413;-79
2023/11/27 09:29:48;;;;;;;1017.23;918.47;;;4.00;99.90;;;;;;6156027;23;20202;-79
2023/11/27 09:32:16;;;;;;;1048.50;949.63;;;4.00;99.90;;;;;;6156347;23;20447;-74
2023/11/27 09:34:43;;;;;;;1080.50;979.90;;;4.10;99.90;;;;;;6155868;23;20413;-74
2023/11/27 09:37:10;;;;;;;1068.53;969.07;;;4.10;99.90;;;;;;6155749;23;20419;-74
2023/11/27 09:39:37;;;;;;;1062.10;961.17;;;4.10;99.90;;;;;;6155460;23;20449;-75
2023/11/27 09:42:04;;;;;;;1024.40;926.63;;;4.10;99.90;;;;;;6155644;23;20424;-75
2023/11/27 09:44:32;;;;;;;1034.07;936.97;;;4.10;99.90;;;;;;6155836;23;20415;-74
2023/11/27 09:47:03;;;;;;;1015.07;918.60;;;4.10;99.90;;;;;;6155800;23;20419;-74
2023/11/27 09:49:34;;;;;;;1013.13;916.07;;;4.10;99.90;;;;;;6155261;23;20951;-74
2023/11/27 09:52:08;;;;;;;1000.00;904.17;;;4.10;99.90;;;;;;6155080;23;20413;-75
2023/11/27 09:54:39;;;;;;;1020.27;922.40;;;4.10;99.90;;;;;;6155847;23;20442;-74
2023/11/27 09:57:07;;;;;;;997.53;899.93;;;4.20;99.90;;;;;;6155709;23;20401;-74
2023/11/27 09:59:38;;;;;;;1014.13;913.13;;;4.10;99.90;;;;;;6155546;23;20411;-75
2023/11/27 10:02:08;;;;;;;1017.17;917.33;;;4.10;99.90;;;;;;6155708;23;20451;-74
2023/11/27 10:04:37;;;;;;;983.17;885.80;;;4.10;99.90;;;;;;6155253;23;20945;-74
2023/11/27 10:07:06;;;;;;;1004.53;906.53;;;4.20;99.90;;;;;;6155584;23;20452;-74
2023/11/27 10:09:34;;;;;;;1004.47;908.87;;;4.20;99.90;;;;;;6155411;23;20438;-74
2023/11/27 10:12:01;;;;;;;1007.93;912.23;;;4.20;99.90;;;;;;6155592;23;20415;-74
2023/11/27 10:14:29;;;;;;;994.80;899.80;;;4.20;99.90;;;;;;6155595;23;20419;-74
2023/11/27 10:16:59;;;;;;;984.77;890.07;;;4.20;99.90;;;;;;6154967;23;20417;-75
2023/11/27 10:19:27;;;;;;;990.03;895.27;;;4.20;99.90;;;;;;6155188;23;20472;-74
2023/11/27 10:21:56;;;;;;;964.43;873.27;;;4.20;99.90;;;;;;6155429;23;20507;-74
2023/11/27 10:24:23;;;;;;;982.40;890.50;;;4.20;99.90;;;;;;6155566;23;20747;-74
2023/11/27 10:26:50;;;;;;;956.87;868.07;;;4.30;99.90;;;;;;6155073;23;20417;-74
2023/11/27 10:29:26;;;;;;;987.53;895.73;;;4.30;99.90;;;;;;6155284;23;20773;-74
2023/11/27 10:31:54;;;;;;;975.60;883.93;;;4.30;99.90;;;;;;6155401;23;20427;-75
2023/11/27 10:34:22;;;;;;;967.87;876.60;;;4.30;99.90;;;;;;6155054;23;20411;-75
2023/11/27 10:36:57;;;;;;;982.80;890.63;;;4.30;99.90;;;;;;6154918;23;20511;-75
2023/11/27 10:39:25;;;;;;;977.57;883.97;;;4.30;99.90;;;;;;6155505;23;20398;-75
2023/11/27 10:41:55;;;;;;;965.27;874.37;;;4.30;99.90;;;;;;6155128;23;20432;-75
2023/11/27 10:44:24;;;;;;;958.03;866.30;;;4.40;99.90;;;;;;6155379;23;20396;-75
2023/11/27 10:46:53;;;;;;;965.63;874.93;;;4.40;99.90;;;;;;6155294;23;20413;-75
2023/11/27 10:49:24;;;;;;;957.07;868.27;;;4.40;99.90;;;;;;6155140;23;20524;-75
2023/11/27 10:51:53;;;;;;;942.63;854.47;;;4.40;99.90;;;;;;6154924;23;20887;-75
2023/11/27 10:54:25;;;;;;;948.83;861.33;;;4.40;99.90;;;;;;6155075;23;20502;-75
2023/11/27 10:56:55;;;;;;;950.70;864.60;;;4.40;99.90;;;;;;6155172;23;20413;-75
2023/11/27 10:59:22;;;;;;;949.23;861.57;;;4.40;99.90;;;;;;6155228;23;20464;-75
2023/11/27 11:01:52;;;;;;;932.33;845.33;;;4.40;99.90;;;;;;6154764;23;20419;-75
2023/11/27 11:04:26;;;;;;;962.27;872.17;;;4.40;99.90;;;;;;6154819;23;20451;-74
2023/11/27 11:06:56;;;;;;;950.87;862.17;;;4.40;99.90;;;;;;6155214;23;20456;-74
2023/11/27 11:09:25;;;;;;;946.97;859.17;;;4.40;99.90;;;;;;6154633;23;20443;-74
2023/11/27 11:11:55;;;;;;;948.93;861.13;;;4.40;99.90;;;;;;6154692;23;20497;-74
2023/11/27 11:14:24;;;;;;;940.57;854.50;;;4.50;99.90;;;;;;6155525;23;20466;-75
2023/11/27 11:16:56;;;;;;;922.43;836.73;;;4.50;99.90;;;;;;6155290;23;20502;-75
2023/11/27 11:19:32;;;;;;;932.73;848.17;;;4.50;99.90;;;;;;6155004;23;20937;-75
2023/11/27 11:22:07;;;;;;;935.40;850.70;;;4.50;99.90;;;;;;6155028;23;20432;-75
2023/11/27 11:24:42;;;;;;;917.03;832.03;;;4.50;99.90;;;;;;6155219;23;20764;-75
2023/11/27 11:27:19;;;;;;;929.80;845.03;;;4.50;99.90;;;;;;6154840;23;20887;-75
2023/11/27 11:29:49;;;;;;;904.47;821.67;;;4.50;99.90;;;;;;6154861;23;20423;-75
2023/11/27 11:32:17;;;;;;;907.63;825.77;;;4.50;99.90;;;;;;6155121;23;20436;-75
2023/11/27 11:34:49;;;;;;;907.50;825.50;;;4.40;99.90;;;;;;6155026;23;20410;-74
2023/11/27 11:37:17;;;;;;;903.80;821.83;;;4.50;99.90;;;;;;6155059;23;20413;-75
2023/11/27 11:39:49;;;;;;;895.20;814.50;;;4.50;99.90;;;;;;6154880;23;20483;-75
2023/11/27 11:42:18;;;;;;;897.17;815.93;;;4.50;99.90;;;;;;6154712;23;20854;-75
2023/11/27 11:45:04;;;;;;;999.00;899.65;;;4.50;99.90;;;;;;6152438;23;20486;-75
2023/11/27 11:47:33;;;;;;;981.42;884.80;;;4.50;99.90;;;;;;6153093;23;20882;-74
2023/11/27 11:50:27;;;;;;;914.87;827.50;;;4.60;99.90;;;;;;6154593;23;20280;-75
2023/11/27 11:52:55;;;;;;;919.57;831.77;;;4.60;99.90;;;;;;6154543;23;20398;-75
2023/11/27 11:55:30;;;;;;;910.73;825.37;;;4.60;99.90;;;;;;6154639;23;20427;-75
2023/11/27 11:57:58;;;;;;;927.87;840.37;;;4.60;99.90;;;;;;6154992;23;20394;-75
2023/11/27 12:00:29;;;;;;;890.73;808.27;;;4.60;99.90;;;;;;6154998;23;20989;-75
2023/11/27 12:02:59;;;;;;;903.03;819.00;;;4.60;99.90;;;;;;6154749;23;20394;-75
2023/11/27 12:05:27;;;;;;;912.20;827.20;;;4.60;99.90;;;;;;6156636;23;20437;-75
2023/11/27 12:07:56;;;;;;;937.07;851.87;;;4.60;99.90;;;;;;6157138;23;20416;-74
2023/11/27 12:10:30;;;;;;;918.50;835.23;;;4.60;99.90;;;;;;6156347;23;20437;-75
2023/11/27 12:12:59;;;;;;;937.03;852.87;;;4.60;99.90;;;;;;6156449;23;20401;-75
2023/11/27 12:15:28;;;;;;;931.07;846.27;;;4.60;99.90;;;;;;6156356;23;20411;-74
2023/11/27 12:17:56;;;;;;;928.10;843.23;;;4.60;99.90;;;;;;6156659;23;20499;-75
2023/11/27 12:20:23;;;;;;;921.23;838.07;;;4.60;99.90;;;;;;6156312;23;20416;-75
2023/11/27 12:22:51;;;;;;;911.00;827.40;;;4.60;99.90;;;;;;6155434;23;20444;-75